Time;durP1;ratioP1;P1;durP2;ratioP2;P2;SDS_P1;SDS_P2;PMS_P1;PMS_P2;Temp;Humidity;BMP_temperature;BMP_pressure;BME280_temperature;BME280_humidity;BME280_pressure;Samples;Min_cycle;Max_cycle;Signal;HPM_P1;HPM_P2
2021/12/06 00:01:32;;;;;;;40.40;17.47;;;3.10;99.90;;;;;;5154422;27;20641;-68
2021/12/06 00:04:03;;;;;;;42.13;18.70;;;3.10;99.90;;;;;;5151254;27;20199;-68
2021/12/06 00:06:33;;;;;;;39.43;16.53;;;3.00;99.90;;;;;;5155098;27;20195;-67
2021/12/06 00:09:01;;;;;;;36.27;16.37;;;3.00;99.90;;;;;;5154883;27;20199;-68
2021/12/06 00:11:28;;;;;;;40.50;18.30;;;3.10;99.90;;;;;;5155067;27;20234;-68
2021/12/06 00:13:55;;;;;;;44.63;17.83;;;3.10;99.90;;;;;;5148118;27;20650;-67
2021/12/06 00:16:23;;;;;;;42.07;17.43;;;3.00;99.90;;;;;;5154647;27;20215;-68
2021/12/06 00:18:53;;;;;;;43.13;18.27;;;3.00;99.90;;;;;;5148572;27;20204;-68
2021/12/06 00:21:21;;;;;;;49.97;19.63;;;3.00;99.90;;;;;;5153837;27;20206;-68
2021/12/06 00:23:47;;;;;;;42.83;19.27;;;3.00;99.90;;;;;;5147686;27;20206;-68
2021/12/06 00:26:14;;;;;;;40.10;17.57;;;3.00;99.90;;;;;;5154618;27;20531;-68
2021/12/06 00:28:45;;;;;;;35.93;16.13;;;3.10;99.90;;;;;;5154166;27;20192;-67
2021/12/06 00:31:14;;;;;;;37.70;17.83;;;3.10;99.90;;;;;;5152914;27;20204;-68
2021/12/06 00:33:43;;;;;;;41.83;18.07;;;3.10;99.90;;;;;;5154611;27;20195;-68
2021/12/06 00:36:26;;;;;;;43.23;18.40;;;3.10;99.90;;;;;;5151343;27;20215;-68
2021/12/06 00:38:53;;;;;;;41.87;17.83;;;3.10;99.90;;;;;;5152799;27;20253;-68
2021/12/06 00:41:20;;;;;;;41.70;17.23;;;3.10;99.90;;;;;;5153378;27;20197;-68
2021/12/06 00:43:47;;;;;;;34.23;15.63;;;3.10;99.90;;;;;;5154167;27;20221;-67
2021/12/06 00:46:14;;;;;;;38.37;16.43;;;3.10;99.90;;;;;;5154084;27;20198;-67
2021/12/06 00:48:41;;;;;;;36.27;16.30;;;3.10;99.90;;;;;;5141759;27;20201;-68
2021/12/06 00:51:08;;;;;;;36.10;17.17;;;3.10;99.90;;;;;;5154496;27;20192;-67
2021/12/06 00:53:36;;;;;;;41.53;16.23;;;3.10;99.90;;;;;;5154322;27;20343;-67
2021/12/06 00:56:03;;;;;;;35.27;16.50;;;3.10;99.90;;;;;;5152837;27;20200;-68
2021/12/06 00:58:30;;;;;;;37.63;16.20;;;3.10;99.90;;;;;;5145778;27;20196;-67
2021/12/06 01:00:58;;;;;;;40.30;16.57;;;3.10;99.90;;;;;;5154228;27;20290;-67
2021/12/06 01:03:27;;;;;;;38.93;17.77;;;3.10;99.90;;;;;;5153507;27;20209;-67
2021/12/06 01:05:54;;;;;;;43.73;19.20;;;3.10;99.90;;;;;;5153998;27;20219;-68
2021/12/06 01:08:22;;;;;;;42.27;16.97;;;3.10;99.90;;;;;;5147645;27;20199;-68
2021/12/06 01:10:51;;;;;;;38.27;16.27;;;3.10;99.90;;;;;;5148962;27;20196;-68
2021/12/06 01:13:19;;;;;;;43.33;19.00;;;3.00;99.90;;;;;;5154113;27;20660;-68
2021/12/06 01:15:46;;;;;;;46.37;19.17;;;3.10;99.90;;;;;;5153303;27;20195;-67
2021/12/06 01:18:16;;;;;;;42.53;18.03;;;3.10;99.90;;;;;;5152746;27;20223;-67
2021/12/06 01:20:51;;;;;;;41.60;17.70;;;3.00;99.90;;;;;;5148472;27;20208;-68
2021/12/06 01:23:23;;;;;;;47.87;18.67;;;3.00;99.90;;;;;;5150622;27;20230;-67
2021/12/06 01:26:07;;;;;;;44.60;17.13;;;3.00;99.90;;;;;;5149787;27;20196;-67
2021/12/06 01:29:03;;;;;;;43.90;18.20;;;3.00;99.90;;;;;;5149054;27;20634;-67
2021/12/06 01:31:42;;;;;;;55.03;19.73;;;2.90;99.90;;;;;;5152613;27;20207;-68
2021/12/06 01:39:40;;;;;;;61.07;19.60;;;2.80;99.90;;;;;;5109972;27;20324;-67
2021/12/06 01:42:09;;;;;;;58.77;20.27;;;2.70;99.90;;;;;;5153627;27;20200;-67
2021/12/06 01:44:38;;;;;;;58.23;21.03;;;2.70;99.90;;;;;;5153447;27;20199;-67
2021/12/06 01:47:09;;;;;;;64.40;21.23;;;2.70;99.90;;;;;;5147226;27;20200;-67
2021/12/06 01:49:38;;;;;;;57.20;20.27;;;2.70;99.90;;;;;;5145124;27;20203;-68
2021/12/06 01:52:08;;;;;;;72.87;21.67;;;2.70;99.90;;;;;;5148447;27;20212;-67
2021/12/06 01:54:35;;;;;;;69.27;22.43;;;2.70;99.90;;;;;;5152170;27;20188;-67
2021/12/06 01:57:02;;;;;;;61.90;21.53;;;2.70;99.90;;;;;;5149240;27;20216;-67
2021/12/06 01:59:31;;;;;;;65.77;22.10;;;2.70;99.90;;;;;;5144492;27;20203;-67
2021/12/06 02:01:58;;;;;;;62.87;22.87;;;2.70;99.90;;;;;;5153132;27;20645;-67
2021/12/06 02:04:28;;;;;;;74.70;24.80;;;2.60;99.90;;;;;;5147526;27;20208;-67
2021/12/06 02:06:55;;;;;;;70.63;23.63;;;2.60;99.90;;;;;;5149560;27;20198;-68
2021/12/06 02:09:26;;;;;;;75.97;24.77;;;2.60;99.90;;;;;;5135027;27;20208;-69
2021/12/06 02:11:54;;;;;;;70.73;25.20;;;2.50;99.90;;;;;;5136827;27;20248;-70
2021/12/06 02:14:29;;;;;;;77.10;24.57;;;2.50;99.90;;;;;;5153273;27;20597;-70
2021/12/06 02:17:07;;;;;;;76.63;25.30;;;2.50;99.90;;;;;;5133820;27;20203;-71
2021/12/06 02:19:40;;;;;;;66.67;23.77;;;2.50;99.90;;;;;;5134085;27;20598;-70
2021/12/06 02:22:09;;;;;;;73.70;24.40;;;2.50;99.90;;;;;;5134220;27;20269;-70
2021/12/06 02:24:37;;;;;;;73.97;24.80;;;2.50;99.90;;;;;;5153677;27;20556;-70
2021/12/06 02:27:07;;;;;;;65.40;24.23;;;2.50;99.90;;;;;;5140802;27;20202;-70
2021/12/06 02:29:34;;;;;;;71.90;25.20;;;2.50;99.90;;;;;;5148817;27;20195;-71
2021/12/06 02:32:05;;;;;;;67.20;23.93;;;2.40;99.90;;;;;;5152033;27;20195;-70
2021/12/06 02:34:32;;;;;;;77.20;26.20;;;2.40;99.90;;;;;;5153876;27;20191;-70
2021/12/06 02:36:59;;;;;;;74.17;26.03;;;2.40;99.90;;;;;;5153263;27;20218;-70
2021/12/06 02:39:29;;;;;;;70.27;24.77;;;2.40;99.90;;;;;;5157688;27;20558;-70
2021/12/06 02:41:57;;;;;;;67.20;25.33;;;2.40;99.90;;;;;;5156309;27;20227;-70
2021/12/06 02:44:24;;;;;;;68.53;25.33;;;2.40;99.90;;;;;;5156994;27;20389;-70
2021/12/06 02:46:51;;;;;;;72.00;26.07;;;2.40;99.90;;;;;;5156935;27;20664;-70
2021/12/06 02:49:18;;;;;;;75.77;27.70;;;2.40;99.90;;;;;;5150873;27;20565;-70
2021/12/06 02:51:45;;;;;;;74.13;28.33;;;2.50;99.90;;;;;;5156174;27;20722;-70
2021/12/06 02:54:13;;;;;;;70.90;26.40;;;2.40;99.90;;;;;;5156907;27;20242;-70
2021/12/06 02:56:53;;;;;;;74.47;25.10;;;2.40;99.90;;;;;;5156409;27;20199;-71
2021/12/06 02:59:21;;;;;;;71.80;25.10;;;2.40;99.90;;;;;;5152222;27;20195;-70
2021/12/06 03:01:51;;;;;;;65.63;27.20;;;2.40;99.90;;;;;;5155893;27;20196;-70
2021/12/06 03:04:19;;;;;;;66.13;26.93;;;2.40;99.90;;;;;;5136060;27;20617;-70
2021/12/06 03:06:48;;;;;;;68.80;26.80;;;2.40;99.90;;;;;;5136599;27;20571;-70
2021/12/06 03:09:17;;;;;;;66.77;25.47;;;2.40;99.90;;;;;;5155759;27;20192;-71
2021/12/06 03:11:48;;;;;;;72.23;28.17;;;2.40;99.90;;;;;;5155535;27;20327;-70
2021/12/06 03:14:20;;;;;;;68.23;27.00;;;2.40;99.90;;;;;;5156756;27;20207;-71
2021/12/06 03:16:48;;;;;;;66.30;25.13;;;2.50;99.90;;;;;;5155986;27;20191;-70
2021/12/06 03:19:15;;;;;;;76.63;27.77;;;2.50;99.90;;;;;;5139474;27;20204;-71
2021/12/06 03:21:42;;;;;;;68.53;28.70;;;2.50;99.90;;;;;;5155553;27;20325;-70
2021/12/06 03:24:09;;;;;;;68.23;26.07;;;2.50;99.90;;;;;;5148568;27;20202;-70
2021/12/06 03:26:37;;;;;;;64.07;27.07;;;2.50;99.90;;;;;;5141010;27;20196;-70
2021/12/06 03:29:06;;;;;;;58.93;25.13;;;2.50;99.90;;;;;;5144104;27;20388;-70
2021/12/06 03:31:34;;;;;;;65.70;29.93;;;2.50;99.90;;;;;;5143167;27;20200;-70
2021/12/06 03:34:01;;;;;;;65.53;25.33;;;2.50;99.90;;;;;;5143754;27;20199;-70
2021/12/06 03:36:30;;;;;;;60.80;25.07;;;2.50;99.90;;;;;;5155148;27;20641;-70
2021/12/06 03:39:01;;;;;;;58.77;25.30;;;2.50;99.90;;;;;;5153450;27;20223;-70
2021/12/06 03:41:29;;;;;;;59.83;23.80;;;2.40;99.90;;;;;;5155870;27;20664;-71
2021/12/06 03:43:57;;;;;;;56.20;22.27;;;2.40;99.90;;;;;;5155729;27;20203;-70
2021/12/06 03:46:27;;;;;;;52.87;22.37;;;2.40;99.90;;;;;;5154995;27;20215;-70
2021/12/06 03:48:54;;;;;;;50.53;21.20;;;2.40;99.90;;;;;;5141244;27;20202;-70
2021/12/06 03:51:21;;;;;;;47.47;21.10;;;2.40;99.90;;;;;;5146684;27;20202;-70
2021/12/06 03:53:48;;;;;;;52.83;23.17;;;2.50;99.90;;;;;;5153948;27;20240;-70
2021/12/06 03:56:15;;;;;;;46.90;20.47;;;2.50;99.90;;;;;;5155228;27;20595;-70
2021/12/06 03:58:44;;;;;;;47.63;21.37;;;2.50;99.90;;;;;;5155133;27;20215;-70
2021/12/06 04:01:11;;;;;;;51.30;23.30;;;2.50;99.90;;;;;;5155592;27;20218;-70
2021/12/06 04:03:42;;;;;;;49.23;21.97;;;2.50;99.90;;;;;;5151321;27;20710;-70
2021/12/06 04:06:09;;;;;;;48.20;20.57;;;2.50;99.90;;;;;;5152108;27;20267;-71
2021/12/06 04:08:36;;;;;;;48.47;22.03;;;2.60;99.90;;;;;;5152748;27;20208;-71
2021/12/06 04:11:04;;;;;;;53.30;22.97;;;2.50;99.90;;;;;;5155623;27;20202;-71
2021/12/06 04:13:31;;;;;;;51.10;23.50;;;2.50;99.90;;;;;;5155325;27;20203;-71
2021/12/06 04:15:58;;;;;;;55.77;23.53;;;2.50;99.90;;;;;;5147799;27;20196;-71
2021/12/06 04:18:25;;;;;;;49.17;21.03;;;2.50;99.90;;;;;;5153349;27;20215;-70
2021/12/06 04:20:54;;;;;;;47.97;21.13;;;2.50;99.90;;;;;;5154073;27;20669;-71
2021/12/06 04:23:21;;;;;;;50.97;23.07;;;2.60;99.90;;;;;;5142786;27;20208;-71
2021/12/06 04:25:49;;;;;;;53.70;22.63;;;2.50;99.90;;;;;;5134177;27;20204;-71
2021/12/06 04:28:18;;;;;;;45.70;20.70;;;2.50;99.90;;;;;;5134930;27;20227;-71
2021/12/06 04:30:45;;;;;;;44.53;21.23;;;2.50;99.90;;;;;;5134208;27;20688;-71
2021/12/06 04:33:12;;;;;;;47.37;22.20;;;2.50;99.90;;;;;;5134411;27;20212;-71
2021/12/06 04:35:40;;;;;;;46.93;21.73;;;2.50;99.90;;;;;;5133926;27;20553;-71
2021/12/06 04:38:09;;;;;;;50.07;22.53;;;2.60;99.90;;;;;;5135197;27;20235;-71
2021/12/06 04:40:37;;;;;;;48.77;21.50;;;2.60;99.90;;;;;;5133181;27;20196;-71
2021/12/06 04:43:04;;;;;;;50.77;21.87;;;2.50;99.90;;;;;;5133422;27;20572;-71
2021/12/06 04:45:33;;;;;;;47.67;22.37;;;2.60;99.90;;;;;;5134537;27;20196;-74
2021/12/06 04:48:00;;;;;;;55.80;24.50;;;2.50;99.90;;;;;;5133786;27;20201;-74
2021/12/06 04:50:31;;;;;;;56.50;23.57;;;2.60;99.90;;;;;;5134073;27;20207;-74
2021/12/06 04:53:02;;;;;;;58.20;22.90;;;2.60;99.90;;;;;;5133804;27;20292;-74
2021/12/06 04:55:37;;;;;;;54.37;22.93;;;2.50;99.90;;;;;;5134189;27;20206;-74
2021/12/06 04:58:06;;;;;;;57.73;24.97;;;2.60;99.90;;;;;;5132702;27;20234;-74
2021/12/06 05:00:36;;;;;;;58.77;22.13;;;2.50;99.90;;;;;;5133108;27;20223;-74
2021/12/06 05:03:06;;;;;;;54.33;22.00;;;2.50;99.90;;;;;;5133045;27;20200;-74
2021/12/06 05:05:39;;;;;;;57.87;22.07;;;2.50;99.90;;;;;;5134140;27;20208;-74
2021/12/06 05:08:14;;;;;;;54.93;22.00;;;2.50;99.90;;;;;;5134290;27;20542;-74
2021/12/06 05:10:43;;;;;;;64.20;21.90;;;2.50;99.90;;;;;;5133184;27;20574;-74
2021/12/06 05:13:10;;;;;;;57.00;20.83;;;2.50;99.90;;;;;;5133446;27;20210;-74
2021/12/06 05:15:37;;;;;;;56.57;22.00;;;2.40;99.90;;;;;;5134241;27;20204;-74
2021/12/06 05:18:05;;;;;;;60.77;21.23;;;2.50;99.90;;;;;;5132873;27;20224;-74
2021/12/06 05:20:32;;;;;;;59.77;22.43;;;2.50;99.90;;;;;;5133740;27;20211;-74
2021/12/06 05:22:59;;;;;;;59.27;23.00;;;2.50;99.90;;;;;;5132789;27;20208;-74
2021/12/06 05:25:26;;;;;;;66.37;23.57;;;2.50;99.90;;;;;;5133608;27;20206;-74
2021/12/06 05:27:58;;;;;;;53.73;21.63;;;2.40;99.90;;;;;;5132812;27;20196;-74
2021/12/06 05:30:25;;;;;;;60.93;23.90;;;2.40;99.90;;;;;;5132746;27;20219;-74
2021/12/06 05:32:54;;;;;;;58.20;22.10;;;2.40;99.90;;;;;;5133012;27;20293;-74
2021/12/06 05:35:21;;;;;;;58.77;22.57;;;2.40;99.90;;;;;;5133118;27;20204;-75
2021/12/06 05:37:50;;;;;;;56.73;22.53;;;2.40;99.90;;;;;;5133391;27;20220;-74
2021/12/06 05:40:19;;;;;;;55.63;21.57;;;2.40;99.90;;;;;;5132324;27;20204;-75
2021/12/06 05:42:47;;;;;;;55.60;23.30;;;2.40;99.90;;;;;;5133020;27;20216;-74
2021/12/06 05:45:17;;;;;;;58.97;23.63;;;2.40;99.90;;;;;;5133547;27;20398;-75
2021/12/06 05:47:44;;;;;;;55.17;22.40;;;2.50;99.90;;;;;;5132731;27;20207;-75
2021/12/06 05:50:11;;;;;;;53.10;20.57;;;2.50;99.90;;;;;;5133350;27;20206;-75
2021/12/06 05:52:38;;;;;;;47.20;19.47;;;2.40;99.90;;;;;;5132530;27;20684;-75
2021/12/06 05:55:07;;;;;;;48.23;19.63;;;2.40;99.90;;;;;;5133002;27;20280;-74
2021/12/06 05:57:34;;;;;;;54.53;20.40;;;2.50;99.90;;;;;;5132518;28;20210;-74
2021/12/06 06:00:01;;;;;;;48.77;19.10;;;2.50;99.90;;;;;;5133476;28;20200;-74
2021/12/06 06:02:30;;;;;;;50.80;20.73;;;2.50;99.90;;;;;;5132289;27;20666;-74
2021/12/06 06:04:57;;;;;;;46.57;20.60;;;2.50;99.90;;;;;;5132975;28;20196;-74
2021/12/06 06:07:23;;;;;;;50.17;21.27;;;2.50;99.90;;;;;;5132941;27;20204;-74
2021/12/06 06:09:50;;;;;;;48.70;19.67;;;2.50;99.90;;;;;;5135308;27;20558;-74
2021/12/06 06:12:17;;;;;;;46.03;18.47;;;2.50;99.90;;;;;;5136953;27;20200;-74
2021/12/06 06:14:44;;;;;;;43.67;17.67;;;2.40;99.90;;;;;;5137008;27;20638;-74
2021/12/06 06:17:13;;;;;;;43.90;17.93;;;2.50;99.90;;;;;;5137229;27;20200;-74
2021/12/06 06:19:45;;;;;;;50.13;18.47;;;2.50;99.90;;;;;;5136453;27;20219;-75
2021/12/06 06:22:12;;;;;;;46.80;19.17;;;2.50;99.90;;;;;;5137048;27;20196;-74
2021/12/06 06:24:39;;;;;;;47.87;19.10;;;2.50;99.90;;;;;;5135954;27;20202;-74
2021/12/06 06:27:06;;;;;;;48.00;19.13;;;2.50;99.90;;;;;;5136279;27;20207;-75
2021/12/06 06:29:35;;;;;;;48.17;19.07;;;2.50;99.90;;;;;;5137174;27;20556;-74
2021/12/06 06:32:02;;;;;;;45.63;19.40;;;2.50;99.90;;;;;;5136204;27;20204;-74
2021/12/06 06:34:29;;;;;;;46.10;19.53;;;2.50;99.90;;;;;;5136771;27;20646;-74
2021/12/06 06:36:57;;;;;;;43.90;19.10;;;2.60;99.90;;;;;;5136926;27;20211;-75
2021/12/06 06:39:25;;;;;;;43.03;18.73;;;2.50;99.90;;;;;;5137094;27;20228;-74
2021/12/06 06:41:54;;;;;;;42.03;18.73;;;2.50;99.90;;;;;;5135754;27;20554;-74
2021/12/06 06:44:21;;;;;;;41.43;18.43;;;2.40;99.90;;;;;;5136926;27;20196;-74
2021/12/06 06:46:49;;;;;;;41.33;18.57;;;2.30;99.90;;;;;;5136252;27;20200;-74
2021/12/06 06:49:17;;;;;;;39.30;19.33;;;2.40;99.90;;;;;;5136300;27;20219;-74
2021/12/06 06:51:46;;;;;;;41.20;19.53;;;2.40;99.90;;;;;;5136214;27;20208;-74
2021/12/06 06:54:15;;;;;;;38.77;20.20;;;2.30;99.90;;;;;;5136480;27;20208;-74
2021/12/06 06:56:42;;;;;;;40.03;20.20;;;2.20;99.90;;;;;;5136193;27;20204;-74
2021/12/06 06:59:09;;;;;;;40.20;19.00;;;2.20;99.90;;;;;;5149156;27;20675;-74
2021/12/06 07:01:36;;;;;;;41.03;19.77;;;2.20;99.90;;;;;;5156613;27;20203;-74
2021/12/06 07:04:03;;;;;;;38.77;19.40;;;2.20;99.90;;;;;;5156754;27;20199;-74
2021/12/06 07:06:30;;;;;;;43.37;21.43;;;2.20;99.90;;;;;;5151859;27;20208;-74
2021/12/06 07:08:58;;;;;;;41.17;20.03;;;2.10;99.90;;;;;;5136451;27;20196;-74
2021/12/06 07:11:27;;;;;;;41.00;20.03;;;2.10;99.90;;;;;;5136184;27;20239;-74
2021/12/06 07:13:55;;;;;;;40.37;20.17;;;2.30;99.90;;;;;;5141347;27;20193;-74
2021/12/06 07:16:22;;;;;;;40.90;19.37;;;2.20;99.90;;;;;;5141150;27;20658;-74
2021/12/06 07:18:49;;;;;;;37.97;20.67;;;2.10;99.90;;;;;;5141297;27;20220;-74
2021/12/06 07:21:17;;;;;;;38.97;19.80;;;2.10;99.90;;;;;;5138793;27;20203;-74
2021/12/06 07:23:44;;;;;;;40.97;20.03;;;2.10;99.90;;;;;;5139514;27;20314;-74
2021/12/06 07:26:14;;;;;;;37.57;19.13;;;2.20;99.90;;;;;;5140290;27;20558;-74
2021/12/06 07:28:44;;;;;;;39.03;20.40;;;2.20;99.90;;;;;;5151757;27;20219;-74
2021/12/06 07:31:13;;;;;;;42.57;19.83;;;2.20;99.90;;;;;;5136932;27;20552;-74
2021/12/06 07:33:40;;;;;;;43.87;20.87;;;2.10;99.90;;;;;;5154425;27;20310;-74
2021/12/06 07:36:07;;;;;;;41.17;20.50;;;2.10;99.90;;;;;;5145224;27;20650;-74
2021/12/06 07:38:37;;;;;;;36.80;19.37;;;2.20;99.90;;;;;;5140267;27;20227;-74
2021/12/06 07:41:05;;;;;;;43.70;21.27;;;2.20;99.90;;;;;;5143388;27;20196;-74
2021/12/06 07:43:32;;;;;;;40.87;20.63;;;2.20;99.90;;;;;;5150365;27;20665;-74
2021/12/06 07:46:00;;;;;;;40.00;20.27;;;2.20;99.90;;;;;;5147984;27;20683;-74
2021/12/06 07:48:28;;;;;;;40.27;20.57;;;2.10;99.90;;;;;;5139154;27;20188;-74
2021/12/06 07:50:54;;;;;;;39.40;19.83;;;2.20;99.90;;;;;;5142644;27;20199;-74
2021/12/06 07:53:22;;;;;;;42.13;20.43;;;2.10;99.90;;;;;;5150417;27;20207;-74
2021/12/06 07:55:48;;;;;;;42.23;22.17;;;2.10;99.90;;;;;;5141196;27;20295;-74
2021/12/06 07:58:15;;;;;;;39.07;19.67;;;2.10;99.90;;;;;;5145640;27;20206;-74
2021/12/06 08:00:45;;;;;;;41.10;20.70;;;2.10;99.90;;;;;;5142876;27;20597;-75
2021/12/06 08:03:14;;;;;;;40.37;20.03;;;2.10;99.90;;;;;;5136776;27;20203;-74
2021/12/06 08:05:44;;;;;;;46.70;21.03;;;2.10;99.90;;;;;;5153729;27;20290;-74
2021/12/06 08:08:14;;;;;;;44.47;20.77;;;2.10;99.90;;;;;;5144591;27;20196;-74
2021/12/06 08:10:44;;;;;;;48.37;23.23;;;2.10;99.90;;;;;;5140593;27;20389;-74
2021/12/06 08:13:12;;;;;;;47.07;23.83;;;2.00;99.90;;;;;;5143957;27;20622;-74
2021/12/06 08:15:39;;;;;;;47.33;22.67;;;2.10;99.90;;;;;;5149851;27;20252;-74
2021/12/06 08:18:08;;;;;;;49.93;23.90;;;2.10;99.90;;;;;;5146926;27;20566;-74
2021/12/06 08:20:37;;;;;;;47.90;22.13;;;2.10;99.90;;;;;;5136165;27;20220;-74
2021/12/06 08:23:04;;;;;;;48.33;21.43;;;2.20;99.90;;;;;;5145739;27;20211;-74
2021/12/06 08:25:31;;;;;;;44.97;20.87;;;2.10;99.90;;;;;;5148484;27;20206;-74
2021/12/06 08:27:59;;;;;;;43.40;20.27;;;2.20;99.90;;;;;;5141223;27;20196;-74
2021/12/06 08:30:27;;;;;;;47.63;22.03;;;2.10;99.90;;;;;;5145493;27;20199;-74
2021/12/06 08:32:56;;;;;;;46.70;21.87;;;2.30;99.90;;;;;;5141281;27;20200;-69
2021/12/06 08:35:26;;;;;;;48.57;23.87;;;2.20;99.90;;;;;;5137317;27;20283;-71
2021/12/06 08:37:55;;;;;;;49.57;24.33;;;2.10;99.90;;;;;;5152855;27;20203;-70
2021/12/06 08:40:23;;;;;;;49.20;23.93;;;2.20;99.90;;;;;;5144027;27;20216;-70
2021/12/06 08:42:50;;;;;;;49.37;23.40;;;2.20;99.90;;;;;;5138931;27;20196;-70
2021/12/06 08:45:17;;;;;;;49.07;22.90;;;2.20;99.90;;;;;;5142704;27;20199;-70
2021/12/06 08:47:44;;;;;;;48.77;24.30;;;2.20;99.90;;;;;;5150902;27;20199;-71
2021/12/06 08:50:17;;;;;;;47.83;23.47;;;2.20;99.90;;;;;;5142584;27;20689;-71
2021/12/06 08:52:44;;;;;;;50.27;23.43;;;2.20;99.90;;;;;;5136565;27;20221;-71
2021/12/06 08:55:13;;;;;;;49.27;21.07;;;2.20;99.90;;;;;;5144278;27;20218;-71
2021/12/06 08:57:41;;;;;;;48.00;23.83;;;2.30;99.90;;;;;;5146715;27;20563;-71
2021/12/06 09:00:11;;;;;;;49.70;22.07;;;2.20;99.90;;;;;;5141035;27;20247;-71
2021/12/06 09:02:38;;;;;;;49.03;22.40;;;2.20;99.90;;;;;;5143750;27;20195;-71
2021/12/06 09:05:06;;;;;;;47.90;23.70;;;2.20;99.90;;;;;;5143526;27;20207;-72
2021/12/06 09:07:33;;;;;;;47.70;22.77;;;2.20;99.90;;;;;;5138373;27;20199;-72
2021/12/06 09:10:01;;;;;;;47.50;22.40;;;2.30;99.90;;;;;;5152197;27;20193;-71
2021/12/06 09:12:32;;;;;;;49.90;23.03;;;2.30;99.90;;;;;;5142496;27;20196;-71
2021/12/06 09:15:01;;;;;;;45.60;21.50;;;2.30;99.90;;;;;;5134068;27;20272;-70
2021/12/06 09:17:28;;;;;;;51.70;24.77;;;2.30;99.90;;;;;;5138106;27;20204;-70
2021/12/06 09:19:55;;;;;;;49.47;22.63;;;2.30;99.90;;;;;;5151214;27;20223;-70
2021/12/06 09:22:24;;;;;;;52.63;24.33;;;2.30;99.90;;;;;;5144470;27;20206;-71
2021/12/06 09:24:52;;;;;;;49.97;23.23;;;2.30;99.90;;;;;;5134743;27;20197;-71
2021/12/06 09:27:20;;;;;;;47.70;21.40;;;2.30;99.90;;;;;;5143209;27;20445;-71
2021/12/06 09:29:48;;;;;;;50.17;23.77;;;2.40;99.90;;;;;;5145238;27;20195;-71
2021/12/06 09:32:16;;;;;;;48.57;22.67;;;2.50;99.90;;;;;;5142065;27;20192;-71
2021/12/06 09:34:45;;;;;;;45.77;22.50;;;2.40;99.90;;;;;;5142972;27;20199;-71
2021/12/06 09:37:13;;;;;;;45.93;22.47;;;2.40;99.90;;;;;;5144233;27;20198;-71
2021/12/06 09:39:40;;;;;;;52.60;23.90;;;2.40;99.90;;;;;;5136200;27;20220;-71
2021/12/06 09:42:08;;;;;;;46.17;21.60;;;2.40;99.90;;;;;;5142996;27;20200;-71
2021/12/06 09:44:36;;;;;;;49.63;23.43;;;2.40;99.90;;;;;;5142074;27;20290;-70
2021/12/06 09:47:05;;;;;;;46.37;22.43;;;2.50;99.90;;;;;;5138359;27;20200;-71
2021/12/06 09:49:32;;;;;;;47.13;22.37;;;2.50;99.90;;;;;;5134586;27;20292;-70
2021/12/06 09:52:02;;;;;;;45.17;19.97;;;2.60;99.90;;;;;;5148228;27;20679;-71
2021/12/06 09:54:32;;;;;;;44.00;21.37;;;2.50;99.90;;;;;;5143253;27;20215;-70
2021/12/06 09:56:59;;;;;;;43.10;21.73;;;2.50;99.90;;;;;;5134695;27;20649;-71
2021/12/06 09:59:27;;;;;;;44.43;22.03;;;2.50;99.90;;;;;;5143915;27;20226;-71
2021/12/06 10:01:56;;;;;;;46.10;20.60;;;2.60;99.90;;;;;;5141107;27;20215;-71
2021/12/06 10:04:26;;;;;;;42.90;21.97;;;2.60;99.90;;;;;;5139537;27;20641;-71
2021/12/06 10:06:55;;;;;;;45.50;21.63;;;2.60;99.90;;;;;;5139696;27;20295;-71
2021/12/06 10:09:24;;;;;;;45.93;21.73;;;2.50;99.90;;;;;;5141340;27;20214;-71
2021/12/06 10:11:53;;;;;;;44.10;20.70;;;2.60;99.90;;;;;;5134171;27;20200;-71
2021/12/06 10:14:20;;;;;;;47.17;23.47;;;2.60;99.90;;;;;;5144448;27;20195;-70
2021/12/06 10:16:47;;;;;;;42.80;20.90;;;2.60;99.90;;;;;;5142977;27;20650;-70
2021/12/06 10:19:15;;;;;;;40.83;19.43;;;2.50;99.90;;;;;;5142889;27;20196;-70
2021/12/06 10:21:45;;;;;;;39.80;19.83;;;2.60;99.90;;;;;;5134361;27;20208;-71
2021/12/06 10:24:15;;;;;;;39.50;19.67;;;2.60;99.90;;;;;;5149353;27;20196;-71
2021/12/06 10:26:42;;;;;;;38.37;18.00;;;2.60;99.90;;;;;;5142747;27;20295;-71
2021/12/06 10:29:11;;;;;;;35.97;17.97;;;2.70;99.90;;;;;;5141115;27;20193;-71
2021/12/06 10:31:41;;;;;;;41.17;19.47;;;2.80;99.90;;;;;;5146875;27;20191;-71
2021/12/06 10:34:09;;;;;;;37.67;17.90;;;2.80;99.90;;;;;;5137672;27;20196;-70
2021/12/06 10:36:36;;;;;;;39.13;17.73;;;2.70;99.90;;;;;;5141187;27;20649;-70
2021/12/06 10:39:07;;;;;;;41.33;20.23;;;2.90;99.90;;;;;;5141900;27;20218;-70
2021/12/06 10:41:37;;;;;;;38.97;18.23;;;2.70;99.90;;;;;;5146411;27;20196;-70
2021/12/06 10:44:09;;;;;;;39.60;19.07;;;2.70;99.90;;;;;;5135663;27;20197;-71
2021/12/06 10:46:38;;;;;;;37.07;17.77;;;2.70;99.90;;;;;;5139974;27;20212;-70
2021/12/06 10:49:08;;;;;;;37.23;17.17;;;2.80;99.90;;;;;;5148251;27;20192;-72
2021/12/06 10:51:36;;;;;;;41.33;20.30;;;2.70;99.90;;;;;;5138819;27;20207;-72
2021/12/06 10:54:08;;;;;;;38.97;21.00;;;2.70;99.90;;;;;;5136071;27;20196;-72
2021/12/06 10:56:42;;;;;;;40.87;19.30;;;2.70;99.90;;;;;;5145275;27;20206;-72
2021/12/06 10:59:14;;;;;;;41.33;18.80;;;2.70;99.90;;;;;;5143287;27;20558;-72
2021/12/06 11:01:41;;;;;;;39.80;20.37;;;2.80;99.90;;;;;;5143626;27;20559;-72
2021/12/06 11:04:11;;;;;;;40.27;18.87;;;2.90;99.90;;;;;;5153330;27;20210;-72
2021/12/06 11:06:43;;;;;;;39.30;19.73;;;2.80;99.90;;;;;;5140659;27;20202;-72
2021/12/06 11:09:13;;;;;;;40.87;20.93;;;2.80;99.90;;;;;;5147848;27;20206;-72
2021/12/06 11:11:43;;;;;;;39.77;19.27;;;2.80;99.90;;;;;;5147452;27;20200;-73
2021/12/06 11:14:14;;;;;;;38.70;18.87;;;2.90;99.90;;;;;;5144892;27;20192;-72
2021/12/06 11:16:43;;;;;;;40.83;19.47;;;2.90;99.90;;;;;;5140776;27;20197;-72
2021/12/06 11:19:12;;;;;;;41.93;20.00;;;2.70;99.90;;;;;;5149699;27;20646;-72
2021/12/06 11:21:42;;;;;;;42.40;21.30;;;2.90;99.90;;;;;;5147247;27;20232;-72
2021/12/06 11:24:22;;;;;;;41.97;20.57;;;2.90;99.90;;;;;;5140261;27;20202;-72
2021/12/06 11:26:58;;;;;;;40.20;19.13;;;2.90;99.90;;;;;;5142354;27;20199;-72
2021/12/06 11:29:28;;;;;;;39.37;19.40;;;2.80;99.90;;;;;;5148358;27;20192;-70
2021/12/06 11:32:02;;;;;;;38.07;19.57;;;2.90;99.90;;;;;;5146534;27;20196;-70
2021/12/06 11:34:33;;;;;;;39.80;19.97;;;2.90;99.90;;;;;;5142320;27;20290;-70
2021/12/06 11:37:00;;;;;;;40.73;18.87;;;2.90;99.90;;;;;;5152053;27;20247;-70
2021/12/06 11:39:29;;;;;;;42.83;22.87;;;2.90;99.90;;;;;;5138394;27;20203;-67
2021/12/06 11:41:58;;;;;;;39.93;20.40;;;2.80;99.90;;;;;;5145681;27;20702;-67
2021/12/06 11:44:33;;;;;;;48.17;21.83;;;2.90;99.90;;;;;;5143723;27;20219;-67
2021/12/06 11:47:08;;;;;;;42.57;20.17;;;2.80;99.90;;;;;;5140474;27;20198;-68
2021/12/06 11:49:41;;;;;;;45.13;21.77;;;2.80;99.90;;;;;;5145316;27;20204;-68
2021/12/06 11:52:12;;;;;;;47.97;22.43;;;2.80;99.90;;;;;;5151301;27;20673;-68
2021/12/06 11:54:44;;;;;;;48.83;22.13;;;2.80;99.90;;;;;;5143459;27;20206;-68
2021/12/06 11:57:17;;;;;;;44.40;21.77;;;2.80;99.90;;;;;;5138247;27;20646;-68
2021/12/06 11:59:55;;;;;;;48.83;20.83;;;2.90;99.90;;;;;;5129104;27;20195;-68
2021/12/06 12:02:39;;;;;;;43.97;21.57;;;3.00;99.90;;;;;;5140307;27;20200;-68
2021/12/06 12:05:34;;;;;;;47.27;21.20;;;3.10;99.90;;;;;;5145426;27;20204;-68
2021/12/06 12:08:12;;;;;;;41.63;19.47;;;3.00;99.90;;;;;;5140539;27;20217;-68
2021/12/06 12:10:47;;;;;;;45.80;23.23;;;3.10;99.90;;;;;;5139387;27;20192;-68
2021/12/06 12:13:23;;;;;;;46.67;21.97;;;3.20;99.90;;;;;;5150997;27;20199;-68
2021/12/06 12:15:50;;;;;;;45.93;20.53;;;3.10;99.90;;;;;;5146011;27;20252;-68
2021/12/06 12:18:17;;;;;;;43.87;19.60;;;3.00;99.90;;;;;;5139834;27;20558;-68
2021/12/06 12:20:44;;;;;;;42.37;20.40;;;3.00;99.90;;;;;;5139839;27;20220;-68
2021/12/06 12:23:11;;;;;;;43.80;20.70;;;3.00;99.90;;;;;;5150172;27;20649;-68
2021/12/06 12:25:48;;;;;;;43.77;20.03;;;3.10;99.90;;;;;;5146959;27;20192;-68
2021/12/06 12:28:20;;;;;;;41.47;20.13;;;3.10;99.90;;;;;;5139296;27;20199;-68
2021/12/06 12:30:49;;;;;;;47.33;22.33;;;3.00;99.90;;;;;;5140384;27;20295;-68
2021/12/06 12:33:19;;;;;;;43.27;20.97;;;3.10;99.90;;;;;;5150660;27;20557;-68
2021/12/06 12:35:48;;;;;;;41.97;19.47;;;3.10;99.90;;;;;;5140695;27;20692;-68
2021/12/06 12:38:21;;;;;;;43.57;20.53;;;3.10;99.90;;;;;;5144834;27;20293;-68
2021/12/06 12:40:52;;;;;;;38.00;18.63;;;3.20;99.90;;;;;;5142383;27;20242;-68
2021/12/06 12:43:21;;;;;;;41.80;19.87;;;3.30;99.90;;;;;;5139227;27;20200;-68
2021/12/06 12:45:51;;;;;;;40.97;20.07;;;3.20;99.90;;;;;;5152915;27;20208;-68
2021/12/06 12:48:23;;;;;;;41.50;20.63;;;3.20;99.90;;;;;;5143926;27;20230;-68
2021/12/06 12:51:07;;;;;;;42.00;19.10;;;3.30;99.90;;;;;;5138675;27;20253;-68